2008 HAGUPIT (2008262N16142)


On this page: IBTrACS data - Map and Plots - Positions - Intensities - Original source data

Summary

Start Sep 17
End Sep 25
Basin WP
LMI 125 kt
Sources jtwc_wp
tokyo
cma
hko
In WMO? Yes
Previous storm 2008 TWO (NI)
Previous in basin 2008 SEVENTEEN (WP)
Concurrent storms 2008 SINLAKU (WP)
2008 TWO (NI)
2008 HAGUPIT (WP)
2008 JANGMI (WP)
2008 KYLE (NA)
Next in basin 2008 JANGMI (WP)
Next storm 2008 JANGMI (WP)

top of page IBTrACS Data: File Access

top of page HURSAT Data: File Access

Image of storm

top of page Plots:

Map of storm track will not appear if FTP is down
Time series of cyclone Maximum Sustained Wind will not appear if FTP is down
Time series of cyclone Minimum Central Pressure will not appear if FTP is down

top of page Track Data:Position

jtwc_wp tokyo cma hko
Date Lat Lon Lat Lon Lat Lon Lat Lon
2008-09-17 12:00:00 17.4 142.9 16.1 141.2 15.9 141.2
2008-09-17 18:00:00 17.0 141.8 15.9 140.1 15.8 140.1
2008-09-18 00:00:00 16.7 140.6 15.6 139.1 15.6 139.1
2008-09-18 06:00:00 16.4 139.4 15.4 138.3 15.4 138.3
2008-09-18 12:00:00 15.9 138.1 15.1 137.6 15.2 137.5
2008-09-18 18:00:00 15.4 136.9 14.8 136.4 14.9 136.4
2008-09-19 00:00:00 14.8 135.6 14.4 135.2 14.5 135.2 14.9 137.0
2008-09-19 06:00:00 14.1 134.2 14.1 134.0 14.1 134.0 14.2 135.2
2008-09-19 12:00:00 13.6 132.7 14.0 132.9 13.9 132.9 13.8 133.9
2008-09-19 18:00:00 13.3 131.5 13.7 131.9 13.5 131.6 13.5 132.7
2008-09-20 00:00:00 14.0 130.8 13.5 131.1 13.5 130.7 13.5 131.1
2008-09-20 06:00:00 14.1 129.6 14.1 129.7 14.1 129.8 14.1 130.0
2008-09-20 12:00:00 14.5 129.0 14.4 128.9 14.5 129.0 14.5 129.1
2008-09-20 18:00:00 15.7 128.1 15.5 128.0 15.5 128.2 15.4 128.2
2008-09-21 00:00:00 16.5 127.2 16.1 127.2 16.4 127.3 16.2 127.4
2008-09-21 06:00:00 17.3 126.4 17.1 126.5 17.2 126.5 17.0 126.5
2008-09-21 12:00:00 18.1 125.5 18.1 125.7 18.0 125.6 17.9 125.6
2008-09-21 18:00:00 18.7 124.4 18.7 124.7 18.7 124.7 18.7 124.7
2008-09-22 00:00:00 19.0 123.4 18.9 123.4 19.0 123.4 19.0 123.4
2008-09-22 06:00:00 19.3 122.1 19.4 122.1 19.3 122.1 19.3 122.1
2008-09-22 12:00:00 19.5 120.9 19.5 120.9 19.5 120.8 19.5 120.8
2008-09-22 18:00:00 19.8 119.1 20.0 119.1 19.9 119.1 20.0 119.1
2008-09-23 00:00:00 20.1 117.2 20.2 117.3 20.2 117.3 20.2 117.3
2008-09-23 06:00:00 20.4 115.5 20.4 115.6 20.4 115.7 20.4 115.7
2008-09-23 12:00:00 20.7 114.0 20.6 114.2 20.6 113.9 20.6 114.2
jtwc_wp tokyo cma hko
2008-09-23 18:00:00 21.1 112.4 21.1 112.5 21.1 112.6 21.0 112.7
2008-09-24 00:00:00 21.5 110.9 21.5 110.7 21.5 110.9 21.4 110.8
2008-09-24 06:00:00 21.7 109.4 21.8 109.1 21.7 109.5 21.8 109.2
2008-09-24 12:00:00 22.2 108.1 21.9 107.9 22.1 108.4 22.1 108.4
2008-09-24 18:00:00 22.4 107.1 22.4 107.0 22.2 107.3 22.3 107.3
2008-09-25 00:00:00 22.5 106.3 22.3 106.2 22.4 106.3 22.4 106.3
2008-09-25 06:00:00 22.8 105.6 22.4 105.4 22.5 105.7 22.5 105.7
2008-09-25 12:00:00 22.4 104.4 22.5 105.0
2008-09-25 18:00:00 22.3 103.2 22.3 103.5

top of pageTrack Data:Intensity

jtwc_wp tokyo cma hko
Date Wind Pres Wind Pres Wind Pres Wind Pres
2008-09-17 12:00:00 20. 1006. 1008. 23. 1008.
2008-09-17 18:00:00 20. 1007. 1008. 23. 1008.
2008-09-18 00:00:00 20. 1006. 1008. 23. 1008.
2008-09-18 06:00:00 20. 1007. 1008. 23. 1008.
2008-09-18 12:00:00 20. 1008. 1008. 23. 1008.
2008-09-18 18:00:00 25. 1004. 1006. 23. 1006.
2008-09-19 00:00:00 30. 1000. 1006. 29. 1004. 25. 1002.
2008-09-19 06:00:00 35. 996. 1004. 29. 1002. 30. 1000.
2008-09-19 12:00:00 40. 993. 35. 1002. 35. 1000. 30. 998.
2008-09-19 18:00:00 45. 989. 45. 994. 45. 994. 40. 992.
2008-09-20 00:00:00 50. 985. 50. 990. 49. 990. 45. 990.
2008-09-20 06:00:00 55. 982. 50. 985. 54. 985. 50. 985.
2008-09-20 12:00:00 55. 982. 50. 985. 54. 985. 50. 985.
2008-09-20 18:00:00 55. 982. 50. 985. 54. 985. 50. 985.
2008-09-21 00:00:00 60. 978. 55. 980. 58. 980. 55. 980.
2008-09-21 06:00:00 60. 978. 55. 975. 64. 975. 60. 975.
2008-09-21 12:00:00 65. 974. 65. 970. 64. 975. 65. 970.
2008-09-21 18:00:00 80. 963. 70. 960. 68. 970. 70. 965.
2008-09-22 00:00:00 85. 959. 75. 955. 78. 960. 75. 960.
2008-09-22 06:00:00 90. 956. 80. 950. 87. 950. 80. 955.
2008-09-22 12:00:00 100. 948. 80. 950. 87. 950. 85. 950.
2008-09-22 18:00:00 100. 948. 80. 950. 87. 950. 85. 950.
2008-09-23 00:00:00 105. 944. 85. 945. 97. 940. 95. 940.
2008-09-23 06:00:00 110. 941. 85. 945. 97. 940. 95. 940.
2008-09-23 12:00:00 125. 929. 85. 945. 97. 940. 95. 940.
jtwc_wp tokyo cma hko
2008-09-23 18:00:00 120. 933. 90. 935. 97. 940. 95. 940.
2008-09-24 00:00:00 105. 944. 75. 955. 87. 950. 85. 950.
2008-09-24 06:00:00 70. 970. 60. 975. 58. 980. 60. 975.
2008-09-24 12:00:00 60. 978. 45. 985. 39. 985. 40. 986.
2008-09-24 18:00:00 40. 993. 35. 992. 29. 992. 30. 992.
2008-09-25 00:00:00 30. 1000. 996. 23. 996. 25. 995.
2008-09-25 06:00:00 20. 1007. 998. 19. 998. 25. 997.
2008-09-25 12:00:00 998. 19. 998.
2008-09-25 18:00:00 1000. 19. 1000.

top of page Links to source data

Source Source file Format
jtwc_wp bwp182008.txt ATCF
tokyo bst_all.txt:Line=57571:HAGUPIT:814 JMA text table
cma CH2008BST.txt:Storm=16:Hagupit CMA text table
hko tc-besttrack-data.txt:Line=33325:HAGUPIT HKO Text table